sensor_id;sensor_type;location;lat;lon;timestamp;temperature;humidity
6106;DHT22;3083;51.508;7.966;2023-03-23T00:00:59;12.10;99.90
6106;DHT22;3083;51.508;7.966;2023-03-23T00:03:27;12.10;99.90
6106;DHT22;3083;51.508;7.966;2023-03-23T00:05:57;12.10;99.90
6106;DHT22;3083;51.508;7.966;2023-03-23T00:08:30;12.00;99.90
6106;DHT22;3083;51.508;7.966;2023-03-23T00:10:57;12.00;99.90
6106;DHT22;3083;51.508;7.966;2023-03-23T00:13:28;12.00;99.90
6106;DHT22;3083;51.508;7.966;2023-03-23T00:15:56;12.00;99.90
6106;DHT22;3083;51.508;7.966;2023-03-23T00:18:24;12.00;99.90
6106;DHT22;3083;51.508;7.966;2023-03-23T00:20:52;11.90;99.90
6106;DHT22;3083;51.508;7.966;2023-03-23T00:23:20;11.90;99.90
6106;DHT22;3083;51.508;7.966;2023-03-23T00:25:50;11.90;99.90
6106;DHT22;3083;51.508;7.966;2023-03-23T00:28:19;11.90;99.90
6106;DHT22;3083;51.508;7.966;2023-03-23T00:30:55;11.90;99.90
6106;DHT22;3083;51.508;7.966;2023-03-23T00:33:23;11.80;99.90
6106;DHT22;3083;51.508;7.966;2023-03-23T00:35:51;11.80;99.90
6106;DHT22;3083;51.508;7.966;2023-03-23T00:38:20;11.70;99.90
6106;DHT22;3083;51.508;7.966;2023-03-23T00:40:47;11.70;99.90
6106;DHT22;3083;51.508;7.966;2023-03-23T00:43:14;11.60;99.90
6106;DHT22;3083;51.508;7.966;2023-03-23T00:45:42;11.60;99.90
6106;DHT22;3083;51.508;7.966;2023-03-23T00:48:12;11.60;99.90
6106;DHT22;3083;51.508;7.966;2023-03-23T00:50:39;11.60;99.90
6106;DHT22;3083;51.508;7.966;2023-03-23T00:53:06;11.60;99.90
6106;DHT22;3083;51.508;7.966;2023-03-23T00:55:33;11.50;99.90
6106;DHT22;3083;51.508;7.966;2023-03-23T00:58:00;11.50;99.90
6106;DHT22;3083;51.508;7.966;2023-03-23T01:00:27;11.60;99.90
6106;DHT22;3083;51.508;7.966;2023-03-23T01:02:54;11.60;99.90
6106;DHT22;3083;51.508;7.966;2023-03-23T01:05:22;11.60;99.90
6106;DHT22;3083;51.508;7.966;2023-03-23T01:07:49;11.60;99.90
6106;DHT22;3083;51.508;7.966;2023-03-23T01:10:16;11.50;99.90
6106;DHT22;3083;51.508;7.966;2023-03-23T01:12:44;11.60;99.90
6106;DHT22;3083;51.508;7.966;2023-03-23T01:15:14;11.60;99.90
6106;DHT22;3083;51.508;7.966;2023-03-23T01:17:43;11.60;99.90
6106;DHT22;3083;51.508;7.966;2023-03-23T01:20:11;11.60;99.90
6106;DHT22;3083;51.508;7.966;2023-03-23T01:22:39;11.60;99.90
6106;DHT22;3083;51.508;7.966;2023-03-23T01:25:08;11.60;99.90
6106;DHT22;3083;51.508;7.966;2023-03-23T01:27:36;11.60;99.90
6106;DHT22;3083;51.508;7.966;2023-03-23T01:30:03;11.60;99.90
6106;DHT22;3083;51.508;7.966;2023-03-23T01:32:32;11.60;99.90
6106;DHT22;3083;51.508;7.966;2023-03-23T01:34:59;11.60;99.90
6106;DHT22;3083;51.508;7.966;2023-03-23T01:37:26;11.60;99.90
6106;DHT22;3083;51.508;7.966;2023-03-23T01:39:55;11.60;99.90
6106;DHT22;3083;51.508;7.966;2023-03-23T01:42:22;11.70;99.90
6106;DHT22;3083;51.508;7.966;2023-03-23T01:48:00;11.70;99.90
6106;DHT22;3083;51.508;7.966;2023-03-23T01:50:29;11.80;99.90
6106;DHT22;3083;51.508;7.966;2023-03-23T01:53:02;11.80;99.90
6106;DHT22;3083;51.508;7.966;2023-03-23T01:55:36;11.80;99.90
6106;DHT22;3083;51.508;7.966;2023-03-23T01:58:04;11.80;99.90
6106;DHT22;3083;51.508;7.966;2023-03-23T02:00:33;11.80;99.90
6106;DHT22;3083;51.508;7.966;2023-03-23T02:03:00;11.80;99.90
6106;DHT22;3083;51.508;7.966;2023-03-23T02:05:30;11.80;99.90
6106;DHT22;3083;51.508;7.966;2023-03-23T02:08:00;11.80;99.90
6106;DHT22;3083;51.508;7.966;2023-03-23T02:10:29;11.80;99.90
6106;DHT22;3083;51.508;7.966;2023-03-23T02:12:58;11.70;99.90
6106;DHT22;3083;51.508;7.966;2023-03-23T02:15:26;11.70;99.90
6106;DHT22;3083;51.508;7.966;2023-03-23T02:18:00;11.60;99.90
6106;DHT22;3083;51.508;7.966;2023-03-23T02:20:43;11.60;99.90
6106;DHT22;3083;51.508;7.966;2023-03-23T02:23:42;11.50;99.90
6106;DHT22;3083;51.508;7.966;2023-03-23T02:26:23;11.40;99.90
6106;DHT22;3083;51.508;7.966;2023-03-23T02:29:13;11.40;99.90
6106;DHT22;3083;51.508;7.966;2023-03-23T02:31:56;11.30;99.90
6106;DHT22;3083;51.508;7.966;2023-03-23T02:34:31;11.20;99.90
6106;DHT22;3083;51.508;7.966;2023-03-23T02:37:01;11.20;99.90
6106;DHT22;3083;51.508;7.966;2023-03-23T02:39:34;11.10;99.90
6106;DHT22;3083;51.508;7.966;2023-03-23T02:42:06;11.10;99.90
6106;DHT22;3083;51.508;7.966;2023-03-23T02:44:37;11.00;99.90
6106;DHT22;3083;51.508;7.966;2023-03-23T02:47:09;11.00;99.90
6106;DHT22;3083;51.508;7.966;2023-03-23T02:49:40;11.00;99.90
6106;DHT22;3083;51.508;7.966;2023-03-23T02:52:11;11.00;99.90
6106;DHT22;3083;51.508;7.966;2023-03-23T02:54:42;10.90;99.90
6106;DHT22;3083;51.508;7.966;2023-03-23T02:57:10;10.90;99.90
6106;DHT22;3083;51.508;7.966;2023-03-23T02:59:38;10.90;99.90
6106;DHT22;3083;51.508;7.966;2023-03-23T03:02:07;10.80;99.90
6106;DHT22;3083;51.508;7.966;2023-03-23T03:04:40;10.80;99.90
6106;DHT22;3083;51.508;7.966;2023-03-23T03:07:24;10.80;99.90
6106;DHT22;3083;51.508;7.966;2023-03-23T03:09:57;10.80;99.90
6106;DHT22;3083;51.508;7.966;2023-03-23T03:12:31;10.80;99.90
6106;DHT22;3083;51.508;7.966;2023-03-23T03:15:06;10.80;99.90
6106;DHT22;3083;51.508;7.966;2023-03-23T03:17:38;10.80;99.90
6106;DHT22;3083;51.508;7.966;2023-03-23T03:20:11;10.80;99.90
6106;DHT22;3083;51.508;7.966;2023-03-23T03:22:41;10.70;99.90
6106;DHT22;3083;51.508;7.966;2023-03-23T03:25:09;10.70;99.90
6106;DHT22;3083;51.508;7.966;2023-03-23T03:27:39;10.70;99.90
6106;DHT22;3083;51.508;7.966;2023-03-23T03:30:09;10.70;99.90
6106;DHT22;3083;51.508;7.966;2023-03-23T03:32:43;10.70;99.90
6106;DHT22;3083;51.508;7.966;2023-03-23T03:35:13;10.60;99.90
6106;DHT22;3083;51.508;7.966;2023-03-23T03:37:41;10.60;99.90
6106;DHT22;3083;51.508;7.966;2023-03-23T03:40:11;10.60;99.90
6106;DHT22;3083;51.508;7.966;2023-03-23T03:42:39;10.60;99.90
6106;DHT22;3083;51.508;7.966;2023-03-23T03:45:07;10.60;99.90
6106;DHT22;3083;51.508;7.966;2023-03-23T03:47:35;10.60;99.90
6106;DHT22;3083;51.508;7.966;2023-03-23T03:50:02;10.60;99.90
6106;DHT22;3083;51.508;7.966;2023-03-23T03:52:30;10.50;99.90
6106;DHT22;3083;51.508;7.966;2023-03-23T03:54:57;10.50;99.90
6106;DHT22;3083;51.508;7.966;2023-03-23T03:57:24;10.50;99.90
6106;DHT22;3083;51.508;7.966;2023-03-23T03:59:51;10.50;99.90
6106;DHT22;3083;51.508;7.966;2023-03-23T04:02:19;10.50;99.90
6106;DHT22;3083;51.508;7.966;2023-03-23T04:04:47;10.60;99.90
6106;DHT22;3083;51.508;7.966;2023-03-23T04:07:14;10.60;99.90
6106;DHT22;3083;51.508;7.966;2023-03-23T04:09:44;10.50;99.90
6106;DHT22;3083;51.508;7.966;2023-03-23T04:12:12;10.60;99.90
6106;DHT22;3083;51.508;7.966;2023-03-23T04:14:39;10.60;99.90
6106;DHT22;3083;51.508;7.966;2023-03-23T04:17:06;10.60;99.90
6106;DHT22;3083;51.508;7.966;2023-03-23T04:19:34;10.60;99.90
6106;DHT22;3083;51.508;7.966;2023-03-23T04:22:02;10.60;99.90
6106;DHT22;3083;51.508;7.966;2023-03-23T04:24:30;10.60;99.90
6106;DHT22;3083;51.508;7.966;2023-03-23T04:27:00;10.60;99.90
6106;DHT22;3083;51.508;7.966;2023-03-23T04:29:27;10.70;99.90
6106;DHT22;3083;51.508;7.966;2023-03-23T04:31:54;10.60;99.90
6106;DHT22;3083;51.508;7.966;2023-03-23T04:34:22;10.60;99.90
6106;DHT22;3083;51.508;7.966;2023-03-23T04:36:49;10.60;99.90
6106;DHT22;3083;51.508;7.966;2023-03-23T04:39:17;10.60;99.90
6106;DHT22;3083;51.508;7.966;2023-03-23T04:41:44;10.60;99.90
6106;DHT22;3083;51.508;7.966;2023-03-23T04:44:13;10.60;99.90
6106;DHT22;3083;51.508;7.966;2023-03-23T04:46:43;10.60;99.90
6106;DHT22;3083;51.508;7.966;2023-03-23T04:49:15;10.60;99.90
6106;DHT22;3083;51.508;7.966;2023-03-23T04:51:46;10.70;99.90
6106;DHT22;3083;51.508;7.966;2023-03-23T04:54:14;10.70;99.90
6106;DHT22;3083;51.508;7.966;2023-03-23T04:56:41;10.80;99.90
6106;DHT22;3083;51.508;7.966;2023-03-23T04:59:08;10.70;99.90
6106;DHT22;3083;51.508;7.966;2023-03-23T05:01:36;10.70;99.90
6106;DHT22;3083;51.508;7.966;2023-03-23T05:04:04;10.80;99.90
6106;DHT22;3083;51.508;7.966;2023-03-23T05:06:31;10.80;99.90
6106;DHT22;3083;51.508;7.966;2023-03-23T05:08:58;10.80;99.90
6106;DHT22;3083;51.508;7.966;2023-03-23T05:11:25;10.90;99.90
6106;DHT22;3083;51.508;7.966;2023-03-23T05:13:52;10.90;99.90
6106;DHT22;3083;51.508;7.966;2023-03-23T05:16:19;10.90;99.90
6106;DHT22;3083;51.508;7.966;2023-03-23T05:18:47;10.90;99.90
6106;DHT22;3083;51.508;7.966;2023-03-23T05:21:14;11.00;99.90
6106;DHT22;3083;51.508;7.966;2023-03-23T05:23:41;11.00;99.90
6106;DHT22;3083;51.508;7.966;2023-03-23T05:26:08;11.00;99.90
6106;DHT22;3083;51.508;7.966;2023-03-23T05:28:35;11.00;99.90
6106;DHT22;3083;51.508;7.966;2023-03-23T05:31:03;11.00;99.90
6106;DHT22;3083;51.508;7.966;2023-03-23T05:33:30;11.00;99.90
6106;DHT22;3083;51.508;7.966;2023-03-23T05:35:58;11.00;99.90
6106;DHT22;3083;51.508;7.966;2023-03-23T05:38:26;11.00;99.90
6106;DHT22;3083;51.508;7.966;2023-03-23T05:40:53;11.10;99.90
6106;DHT22;3083;51.508;7.966;2023-03-23T05:43:20;11.10;99.90
6106;DHT22;3083;51.508;7.966;2023-03-23T05:45:47;11.10;99.90
6106;DHT22;3083;51.508;7.966;2023-03-23T05:48:14;11.10;99.90
6106;DHT22;3083;51.508;7.966;2023-03-23T05:50:40;11.10;99.90
6106;DHT22;3083;51.508;7.966;2023-03-23T05:53:09;11.10;99.90
6106;DHT22;3083;51.508;7.966;2023-03-23T05:55:36;11.10;99.90
6106;DHT22;3083;51.508;7.966;2023-03-23T05:58:03;11.10;99.90
6106;DHT22;3083;51.508;7.966;2023-03-23T06:00:30;11.10;99.90
6106;DHT22;3083;51.508;7.966;2023-03-23T06:02:58;11.10;99.90
6106;DHT22;3083;51.508;7.966;2023-03-23T06:05:26;11.10;99.90
6106;DHT22;3083;51.508;7.966;2023-03-23T06:07:55;11.10;99.90
6106;DHT22;3083;51.508;7.966;2023-03-23T06:10:23;11.20;99.90
6106;DHT22;3083;51.508;7.966;2023-03-23T06:12:50;11.20;99.90
6106;DHT22;3083;51.508;7.966;2023-03-23T06:15:18;11.20;99.90
6106;DHT22;3083;51.508;7.966;2023-03-23T06:17:45;11.20;99.90
6106;DHT22;3083;51.508;7.966;2023-03-23T06:20:12;11.20;99.90
6106;DHT22;3083;51.508;7.966;2023-03-23T06:22:40;11.30;99.90
6106;DHT22;3083;51.508;7.966;2023-03-23T06:25:08;11.30;99.90
6106;DHT22;3083;51.508;7.966;2023-03-23T06:27:38;11.30;99.90
6106;DHT22;3083;51.508;7.966;2023-03-23T06:30:06;11.30;99.90
6106;DHT22;3083;51.508;7.966;2023-03-23T06:32:33;11.30;99.90
6106;DHT22;3083;51.508;7.966;2023-03-23T06:35:00;11.40;99.90
6106;DHT22;3083;51.508;7.966;2023-03-23T06:37:29;11.40;99.90
6106;DHT22;3083;51.508;7.966;2023-03-23T06:39:57;11.40;99.90
6106;DHT22;3083;51.508;7.966;2023-03-23T06:42:24;11.50;99.90
6106;DHT22;3083;51.508;7.966;2023-03-23T06:44:52;11.50;99.90
6106;DHT22;3083;51.508;7.966;2023-03-23T06:47:22;11.60;99.90
6106;DHT22;3083;51.508;7.966;2023-03-23T06:49:49;11.60;99.90
6106;DHT22;3083;51.508;7.966;2023-03-23T06:52:16;11.70;99.90
6106;DHT22;3083;51.508;7.966;2023-03-23T06:54:43;11.70;99.90
6106;DHT22;3083;51.508;7.966;2023-03-23T06:57:10;11.80;99.90
6106;DHT22;3083;51.508;7.966;2023-03-23T06:59:37;11.80;99.90
6106;DHT22;3083;51.508;7.966;2023-03-23T07:02:05;11.80;99.90
6106;DHT22;3083;51.508;7.966;2023-03-23T07:04:33;11.90;99.90
6106;DHT22;3083;51.508;7.966;2023-03-23T07:07:00;11.90;99.90
6106;DHT22;3083;51.508;7.966;2023-03-23T07:09:27;12.00;99.90
6106;DHT22;3083;51.508;7.966;2023-03-23T07:11:53;12.10;99.90
6106;DHT22;3083;51.508;7.966;2023-03-23T07:14:21;12.20;99.90
6106;DHT22;3083;51.508;7.966;2023-03-23T07:16:48;12.30;99.90
6106;DHT22;3083;51.508;7.966;2023-03-23T07:19:16;12.40;99.90
6106;DHT22;3083;51.508;7.966;2023-03-23T07:21:43;12.50;99.90
6106;DHT22;3083;51.508;7.966;2023-03-23T07:24:11;12.60;99.90
6106;DHT22;3083;51.508;7.966;2023-03-23T07:26:39;12.70;99.90
6106;DHT22;3083;51.508;7.966;2023-03-23T07:29:07;12.80;99.90
6106;DHT22;3083;51.508;7.966;2023-03-23T07:31:34;12.80;99.90
6106;DHT22;3083;51.508;7.966;2023-03-23T07:34:01;12.80;99.90
6106;DHT22;3083;51.508;7.966;2023-03-23T07:36:30;12.80;99.90
6106;DHT22;3083;51.508;7.966;2023-03-23T07:38:58;12.80;99.90
6106;DHT22;3083;51.508;7.966;2023-03-23T07:41:25;12.80;99.90
6106;DHT22;3083;51.508;7.966;2023-03-23T07:43:52;12.70;99.90
6106;DHT22;3083;51.508;7.966;2023-03-23T07:46:18;12.70;99.90
6106;DHT22;3083;51.508;7.966;2023-03-23T07:48:45;12.70;99.90
6106;DHT22;3083;51.508;7.966;2023-03-23T07:51:13;12.70;99.90
6106;DHT22;3083;51.508;7.966;2023-03-23T07:53:43;12.70;99.90
6106;DHT22;3083;51.508;7.966;2023-03-23T07:56:13;12.80;99.90
6106;DHT22;3083;51.508;7.966;2023-03-23T07:58:40;12.80;99.90
6106;DHT22;3083;51.508;7.966;2023-03-23T08:01:07;12.80;99.90
6106;DHT22;3083;51.508;7.966;2023-03-23T08:03:34;12.90;99.90
6106;DHT22;3083;51.508;7.966;2023-03-23T08:06:01;13.00;99.90
6106;DHT22;3083;51.508;7.966;2023-03-23T08:08:28;13.00;99.90
6106;DHT22;3083;51.508;7.966;2023-03-23T08:10:57;13.00;99.90
6106;DHT22;3083;51.508;7.966;2023-03-23T08:13:24;13.10;99.90
6106;DHT22;3083;51.508;7.966;2023-03-23T08:15:51;13.10;99.90
6106;DHT22;3083;51.508;7.966;2023-03-23T08:18:18;13.10;99.90
6106;DHT22;3083;51.508;7.966;2023-03-23T08:20:45;13.20;99.90
6106;DHT22;3083;51.508;7.966;2023-03-23T08:23:12;13.20;99.90
6106;DHT22;3083;51.508;7.966;2023-03-23T08:25:41;13.20;99.90
6106;DHT22;3083;51.508;7.966;2023-03-23T08:28:10;13.30;99.90
6106;DHT22;3083;51.508;7.966;2023-03-23T08:30:40;13.40;99.90
6106;DHT22;3083;51.508;7.966;2023-03-23T08:33:08;13.40;99.90
6106;DHT22;3083;51.508;7.966;2023-03-23T08:35:36;13.50;99.90
6106;DHT22;3083;51.508;7.966;2023-03-23T08:38:03;13.50;99.90
6106;DHT22;3083;51.508;7.966;2023-03-23T08:40:30;13.50;99.90
6106;DHT22;3083;51.508;7.966;2023-03-23T08:42:58;13.60;99.90
6106;DHT22;3083;51.508;7.966;2023-03-23T08:45:26;13.60;99.90
6106;DHT22;3083;51.508;7.966;2023-03-23T08:47:53;13.60;99.90
6106;DHT22;3083;51.508;7.966;2023-03-23T08:50:23;13.60;99.90
6106;DHT22;3083;51.508;7.966;2023-03-23T08:52:51;13.70;99.90
6106;DHT22;3083;51.508;7.966;2023-03-23T08:55:18;13.70;99.90
6106;DHT22;3083;51.508;7.966;2023-03-23T08:57:46;13.70;99.90
6106;DHT22;3083;51.508;7.966;2023-03-23T09:00:15;13.70;99.90
6106;DHT22;3083;51.508;7.966;2023-03-23T09:02:46;13.80;99.90
6106;DHT22;3083;51.508;7.966;2023-03-23T09:05:14;13.90;99.90
6106;DHT22;3083;51.508;7.966;2023-03-23T09:07:44;13.90;99.90
6106;DHT22;3083;51.508;7.966;2023-03-23T09:10:12;13.90;99.90
6106;DHT22;3083;51.508;7.966;2023-03-23T09:12:39;14.00;99.90
6106;DHT22;3083;51.508;7.966;2023-03-23T09:15:08;14.00;99.90
6106;DHT22;3083;51.508;7.966;2023-03-23T09:17:39;14.00;99.90
6106;DHT22;3083;51.508;7.966;2023-03-23T09:20:09;14.10;99.90
6106;DHT22;3083;51.508;7.966;2023-03-23T09:22:38;14.10;99.90
6106;DHT22;3083;51.508;7.966;2023-03-23T09:25:06;14.30;99.90
6106;DHT22;3083;51.508;7.966;2023-03-23T09:27:34;14.50;99.90
6106;DHT22;3083;51.508;7.966;2023-03-23T09:30:03;14.70;99.90
6106;DHT22;3083;51.508;7.966;2023-03-23T09:32:32;14.90;99.90
6106;DHT22;3083;51.508;7.966;2023-03-23T09:35:00;14.90;99.90
6106;DHT22;3083;51.508;7.966;2023-03-23T09:37:28;15.00;99.90
6106;DHT22;3083;51.508;7.966;2023-03-23T09:39:55;15.00;99.90
6106;DHT22;3083;51.508;7.966;2023-03-23T09:42:34;15.10;99.90
6106;DHT22;3083;51.508;7.966;2023-03-23T09:45:12;15.20;99.90
6106;DHT22;3083;51.508;7.966;2023-03-23T09:47:48;15.20;99.90
6106;DHT22;3083;51.508;7.966;2023-03-23T09:50:18;15.20;99.90
6106;DHT22;3083;51.508;7.966;2023-03-23T09:52:52;15.10;99.90
6106;DHT22;3083;51.508;7.966;2023-03-23T09:55:21;15.00;99.90
6106;DHT22;3083;51.508;7.966;2023-03-23T09:57:54;14.90;99.90
6106;DHT22;3083;51.508;7.966;2023-03-23T10:00:25;14.90;99.90
6106;DHT22;3083;51.508;7.966;2023-03-23T10:02:59;14.80;99.90
6106;DHT22;3083;51.508;7.966;2023-03-23T10:05:32;14.80;99.90
6106;DHT22;3083;51.508;7.966;2023-03-23T10:08:05;14.70;99.90
6106;DHT22;3083;51.508;7.966;2023-03-23T10:10:48;14.70;99.90
6106;DHT22;3083;51.508;7.966;2023-03-23T10:13:25;14.70;99.90
6106;DHT22;3083;51.508;7.966;2023-03-23T10:15:57;14.60;99.90
6106;DHT22;3083;51.508;7.966;2023-03-23T10:18:29;14.70;99.90
6106;DHT22;3083;51.508;7.966;2023-03-23T10:20:58;14.80;99.90
6106;DHT22;3083;51.508;7.966;2023-03-23T10:23:50;14.80;99.90
6106;DHT22;3083;51.508;7.966;2023-03-23T10:26:33;14.80;99.90
6106;DHT22;3083;51.508;7.966;2023-03-23T10:29:12;14.90;99.90
6106;DHT22;3083;51.508;7.966;2023-03-23T10:31:42;15.10;99.90
6106;DHT22;3083;51.508;7.966;2023-03-23T10:34:15;15.30;99.90
6106;DHT22;3083;51.508;7.966;2023-03-23T10:36:52;15.30;99.90
6106;DHT22;3083;51.508;7.966;2023-03-23T10:39:24;15.50;99.90
6106;DHT22;3083;51.508;7.966;2023-03-23T10:41:52;15.60;99.90
6106;DHT22;3083;51.508;7.966;2023-03-23T10:44:21;15.60;99.90
6106;DHT22;3083;51.508;7.966;2023-03-23T10:46:56;15.60;99.90
6106;DHT22;3083;51.508;7.966;2023-03-23T10:49:26;15.50;99.90
6106;DHT22;3083;51.508;7.966;2023-03-23T10:51:59;15.60;99.90
6106;DHT22;3083;51.508;7.966;2023-03-23T10:54:35;15.70;99.90
6106;DHT22;3083;51.508;7.966;2023-03-23T10:57:13;15.70;99.90
6106;DHT22;3083;51.508;7.966;2023-03-23T10:59:47;15.70;99.90
6106;DHT22;3083;51.508;7.966;2023-03-23T11:02:16;15.60;99.90
6106;DHT22;3083;51.508;7.966;2023-03-23T11:04:55;15.50;99.90
6106;DHT22;3083;51.508;7.966;2023-03-23T11:07:27;15.40;99.90
6106;DHT22;3083;51.508;7.966;2023-03-23T11:10:03;15.30;99.90
6106;DHT22;3083;51.508;7.966;2023-03-23T11:12:33;15.10;99.90
6106;DHT22;3083;51.508;7.966;2023-03-23T11:15:14;14.90;99.90
6106;DHT22;3083;51.508;7.966;2023-03-23T11:17:43;14.70;99.90
6106;DHT22;3083;51.508;7.966;2023-03-23T11:20:11;14.50;99.90
6106;DHT22;3083;51.508;7.966;2023-03-23T11:22:38;14.40;99.90
6106;DHT22;3083;51.508;7.966;2023-03-23T11:25:12;14.30;99.90
6106;DHT22;3083;51.508;7.966;2023-03-23T11:27:40;14.20;99.90
6106;DHT22;3083;51.508;7.966;2023-03-23T11:30:11;14.00;99.90
6106;DHT22;3083;51.508;7.966;2023-03-23T11:32:43;13.70;99.90
6106;DHT22;3083;51.508;7.966;2023-03-23T11:35:16;13.50;99.90
6106;DHT22;3083;51.508;7.966;2023-03-23T11:37:47;13.30;99.90
6106;DHT22;3083;51.508;7.966;2023-03-23T11:40:19;13.10;99.90
6106;DHT22;3083;51.508;7.966;2023-03-23T11:42:48;13.00;99.90
6106;DHT22;3083;51.508;7.966;2023-03-23T11:45:18;13.00;99.90
6106;DHT22;3083;51.508;7.966;2023-03-23T11:47:54;12.90;99.90
6106;DHT22;3083;51.508;7.966;2023-03-23T11:50:25;12.80;99.90
6106;DHT22;3083;51.508;7.966;2023-03-23T11:53:00;12.70;99.90
6106;DHT22;3083;51.508;7.966;2023-03-23T11:55:35;12.60;99.90
6106;DHT22;3083;51.508;7.966;2023-03-23T11:58:10;12.50;99.90
6106;DHT22;3083;51.508;7.966;2023-03-23T12:00:41;12.60;99.90
6106;DHT22;3083;51.508;7.966;2023-03-23T12:03:27;12.70;99.90
6106;DHT22;3083;51.508;7.966;2023-03-23T12:06:02;12.80;99.90
6106;DHT22;3083;51.508;7.966;2023-03-23T12:11:30;13.20;99.90
6106;DHT22;3083;51.508;7.966;2023-03-23T12:14:12;13.30;99.90
6106;DHT22;3083;51.508;7.966;2023-03-23T12:16:51;13.30;99.90
6106;DHT22;3083;51.508;7.966;2023-03-23T12:19:26;13.20;99.90
6106;DHT22;3083;51.508;7.966;2023-03-23T12:22:06;13.20;99.90
6106;DHT22;3083;51.508;7.966;2023-03-23T12:24:55;13.10;99.90
6106;DHT22;3083;51.508;7.966;2023-03-23T12:27:32;13.00;99.90
6106;DHT22;3083;51.508;7.966;2023-03-23T12:30:21;12.90;99.90
6106;DHT22;3083;51.508;7.966;2023-03-23T12:35:59;12.70;99.90
6106;DHT22;3083;51.508;7.966;2023-03-23T12:38:53;12.50;99.90
6106;DHT22;3083;51.508;7.966;2023-03-23T12:41:27;12.40;99.90
6106;DHT22;3083;51.508;7.966;2023-03-23T12:44:00;12.30;99.90
6106;DHT22;3083;51.508;7.966;2023-03-23T12:46:47;12.20;99.90
6106;DHT22;3083;51.508;7.966;2023-03-23T12:49:20;12.10;99.90
6106;DHT22;3083;51.508;7.966;2023-03-23T12:51:53;12.20;99.90
6106;DHT22;3083;51.508;7.966;2023-03-23T12:54:25;12.30;99.90
6106;DHT22;3083;51.508;7.966;2023-03-23T12:56:56;12.40;99.90
6106;DHT22;3083;51.508;7.966;2023-03-23T12:59:32;12.40;99.90
6106;DHT22;3083;51.508;7.966;2023-03-23T13:02:10;12.30;99.90
6106;DHT22;3083;51.508;7.966;2023-03-23T13:04:41;12.20;99.90
6106;DHT22;3083;51.508;7.966;2023-03-23T13:07:16;12.20;99.90
6106;DHT22;3083;51.508;7.966;2023-03-23T13:09:50;12.30;99.90
6106;DHT22;3083;51.508;7.966;2023-03-23T13:12:19;12.30;99.90
6106;DHT22;3083;51.508;7.966;2023-03-23T13:14:56;12.30;99.90
6106;DHT22;3083;51.508;7.966;2023-03-23T13:17:38;12.30;99.90
6106;DHT22;3083;51.508;7.966;2023-03-23T13:20:23;12.30;99.90
6106;DHT22;3083;51.508;7.966;2023-03-23T13:23:00;12.20;99.90
6106;DHT22;3083;51.508;7.966;2023-03-23T13:25:43;12.10;99.90
6106;DHT22;3083;51.508;7.966;2023-03-23T13:28:15;12.00;99.90
6106;DHT22;3083;51.508;7.966;2023-03-23T13:30:59;12.00;99.90
6106;DHT22;3083;51.508;7.966;2023-03-23T13:33:29;12.10;99.90
6106;DHT22;3083;51.508;7.966;2023-03-23T13:35:56;12.10;99.90
6106;DHT22;3083;51.508;7.966;2023-03-23T13:38:31;12.20;99.90
6106;DHT22;3083;51.508;7.966;2023-03-23T13:40:58;12.20;99.90
6106;DHT22;3083;51.508;7.966;2023-03-23T13:43:34;12.20;99.90
6106;DHT22;3083;51.508;7.966;2023-03-23T13:46:23;12.20;99.90
6106;DHT22;3083;51.508;7.966;2023-03-23T13:49:03;12.40;99.90
6106;DHT22;3083;51.508;7.966;2023-03-23T13:51:36;12.50;99.90
6106;DHT22;3083;51.508;7.966;2023-03-23T13:54:22;12.50;99.90
6106;DHT22;3083;51.508;7.966;2023-03-23T13:56:54;12.50;99.90
6106;DHT22;3083;51.508;7.966;2023-03-23T13:59:34;12.40;99.90
6106;DHT22;3083;51.508;7.966;2023-03-23T14:02:34;12.40;99.90
6106;DHT22;3083;51.508;7.966;2023-03-23T14:05:28;12.30;99.90
6106;DHT22;3083;51.508;7.966;2023-03-23T14:07:58;12.30;99.90
6106;DHT22;3083;51.508;7.966;2023-03-23T14:10:32;12.30;99.90
6106;DHT22;3083;51.508;7.966;2023-03-23T14:13:02;12.30;99.90
6106;DHT22;3083;51.508;7.966;2023-03-23T14:15:30;12.40;99.90
6106;DHT22;3083;51.508;7.966;2023-03-23T14:18:02;12.40;99.90
6106;DHT22;3083;51.508;7.966;2023-03-23T14:20:32;12.40;99.90
6106;DHT22;3083;51.508;7.966;2023-03-23T14:23:00;12.40;99.90
6106;DHT22;3083;51.508;7.966;2023-03-23T14:25:29;12.40;99.90
6106;DHT22;3083;51.508;7.966;2023-03-23T14:27:57;12.40;99.90
6106;DHT22;3083;51.508;7.966;2023-03-23T14:30:26;12.40;99.90
6106;DHT22;3083;51.508;7.966;2023-03-23T14:33:02;12.30;99.90
6106;DHT22;3083;51.508;7.966;2023-03-23T14:35:32;12.30;99.90
6106;DHT22;3083;51.508;7.966;2023-03-23T14:37:59;12.30;99.90
6106;DHT22;3083;51.508;7.966;2023-03-23T14:40:28;12.20;99.90
6106;DHT22;3083;51.508;7.966;2023-03-23T14:42:56;12.20;99.90
6106;DHT22;3083;51.508;7.966;2023-03-23T14:45:24;12.20;99.90
6106;DHT22;3083;51.508;7.966;2023-03-23T14:47:54;12.30;99.90
6106;DHT22;3083;51.508;7.966;2023-03-23T14:50:25;12.30;99.90
6106;DHT22;3083;51.508;7.966;2023-03-23T15:07:46;12.40;99.90
6106;DHT22;3083;51.508;7.966;2023-03-23T15:10:20;12.80;99.90
6106;DHT22;3083;51.508;7.966;2023-03-23T15:12:49;12.80;99.90
6106;DHT22;3083;51.508;7.966;2023-03-23T15:15:25;12.90;99.90
6106;DHT22;3083;51.508;7.966;2023-03-23T15:17:53;12.90;99.90
6106;DHT22;3083;51.508;7.966;2023-03-23T15:20:23;12.90;99.90
6106;DHT22;3083;51.508;7.966;2023-03-23T15:22:52;13.00;99.90
6106;DHT22;3083;51.508;7.966;2023-03-23T15:25:20;13.10;99.90
6106;DHT22;3083;51.508;7.966;2023-03-23T15:27:52;13.20;99.90
6106;DHT22;3083;51.508;7.966;2023-03-23T15:30:31;13.20;99.90
6106;DHT22;3083;51.508;7.966;2023-03-23T15:33:04;13.10;99.90
6106;DHT22;3083;51.508;7.966;2023-03-23T15:35:34;13.10;99.90
6106;DHT22;3083;51.508;7.966;2023-03-23T15:38:04;13.00;99.90
6106;DHT22;3083;51.508;7.966;2023-03-23T15:40:34;12.90;99.90
6106;DHT22;3083;51.508;7.966;2023-03-23T15:43:08;12.80;99.90
6106;DHT22;3083;51.508;7.966;2023-03-23T15:45:52;12.80;99.90
6106;DHT22;3083;51.508;7.966;2023-03-23T15:48:19;12.70;99.90
6106;DHT22;3083;51.508;7.966;2023-03-23T15:50:47;12.80;99.90
6106;DHT22;3083;51.508;7.966;2023-03-23T15:53:27;12.80;99.90
6106;DHT22;3083;51.508;7.966;2023-03-23T15:55:54;12.80;99.90
6106;DHT22;3083;51.508;7.966;2023-03-23T15:58:21;12.80;99.90
6106;DHT22;3083;51.508;7.966;2023-03-23T16:00:50;12.80;99.90
6106;DHT22;3083;51.508;7.966;2023-03-23T16:03:21;12.80;99.90
6106;DHT22;3083;51.508;7.966;2023-03-23T16:05:50;12.80;99.90
6106;DHT22;3083;51.508;7.966;2023-03-23T16:08:17;12.80;99.90
6106;DHT22;3083;51.508;7.966;2023-03-23T16:10:45;12.80;99.90
6106;DHT22;3083;51.508;7.966;2023-03-23T16:13:12;12.90;99.90
6106;DHT22;3083;51.508;7.966;2023-03-23T16:15:39;12.90;99.90
6106;DHT22;3083;51.508;7.966;2023-03-23T16:18:06;12.90;99.90
6106;DHT22;3083;51.508;7.966;2023-03-23T16:20:33;12.80;99.90
6106;DHT22;3083;51.508;7.966;2023-03-23T16:23:00;12.80;99.90
6106;DHT22;3083;51.508;7.966;2023-03-23T16:25:27;12.70;99.90
6106;DHT22;3083;51.508;7.966;2023-03-23T16:27:55;12.70;99.90
6106;DHT22;3083;51.508;7.966;2023-03-23T16:30:23;12.60;99.90
6106;DHT22;3083;51.508;7.966;2023-03-23T16:32:51;12.50;99.90
6106;DHT22;3083;51.508;7.966;2023-03-23T16:35:19;12.50;99.90
6106;DHT22;3083;51.508;7.966;2023-03-23T16:37:47;12.50;99.90
6106;DHT22;3083;51.508;7.966;2023-03-23T16:40:15;12.50;99.90
6106;DHT22;3083;51.508;7.966;2023-03-23T16:42:42;12.50;99.90
6106;DHT22;3083;51.508;7.966;2023-03-23T16:45:12;12.40;99.90
6106;DHT22;3083;51.508;7.966;2023-03-23T16:47:40;12.40;99.90